Time;durP1;ratioP1;P1;durP2;ratioP2;P2;SDS_P1;SDS_P2;PMS_P1;PMS_P2;Temp;Humidity;BMP_temperature;BMP_pressure;BME280_temperature;BME280_humidity;BME280_pressure;Samples;Min_cycle;Max_cycle;Signal;HPM_P1;HPM_P2
2021/12/25 00:01:45;;;;;;;8.95;5.45;;;;;;;4.79;100.00;98155.06;4952367;28;20199;-60
2021/12/25 00:04:11;;;;;;;9.15;5.50;;;;;;;4.73;100.00;98151.50;4947075;28;20122;-61
2021/12/25 00:06:37;;;;;;;9.27;5.80;;;;;;;4.78;100.00;98148.16;4951909;28;20667;-60
2021/12/25 00:09:03;;;;;;;11.32;6.72;;;;;;;4.80;100.00;98146.91;4957689;28;20027;-62
2021/12/25 00:11:28;;;;;;;10.18;6.25;;;;;;;4.85;100.00;98144.34;4952289;28;20078;-60
2021/12/25 00:13:54;;;;;;;11.52;6.63;;;;;;;4.89;100.00;98129.59;4954329;28;20031;-60
2021/12/25 00:16:19;;;;;;;10.13;6.05;;;;;;;4.87;100.00;98126.34;4953486;28;20125;-60
2021/12/25 00:18:44;;;;;;;10.35;6.15;;;;;;;4.90;100.00;98122.41;4958023;28;20105;-61
2021/12/25 00:21:10;;;;;;;9.88;6.18;;;;;;;4.95;100.00;98122.53;4952986;28;20039;-60
2021/12/25 00:23:36;;;;;;;10.65;6.35;;;;;;;4.97;100.00;98125.75;4959499;28;20549;-60
2021/12/25 00:26:11;;;;;;;11.45;7.05;;;;;;;4.90;100.00;98135.69;4946555;28;20038;-60
2021/12/25 00:36:13;;;;;;;13.10;7.78;;;;;;;4.78;100.00;98154.28;4949478;28;20066;-60
2021/12/25 00:38:38;;;;;;;12.87;8.00;;;;;;;4.86;100.00;98142.50;4955509;28;20061;-62
2021/12/25 00:41:04;;;;;;;11.80;7.75;;;;;;;4.94;100.00;98153.59;4954533;28;20290;-60
2021/12/25 00:43:33;;;;;;;12.18;7.47;;;;;;;4.96;100.00;98156.81;4957780;28;20035;-60
2021/12/25 00:45:58;;;;;;;12.80;7.10;;;;;;;4.95;100.00;98159.69;4951257;28;20042;-60
2021/12/25 00:48:23;;;;;;;13.18;8.10;;;;;;;4.95;100.00;98159.69;4956521;28;20629;-60
2021/12/25 00:50:49;;;;;;;11.60;7.25;;;;;;;4.95;100.00;98162.34;4955760;28;20074;-60
2021/12/25 00:53:14;;;;;;;17.15;8.48;;;;;;;4.92;100.00;98160.19;4951815;28;20800;-60
2021/12/25 00:55:40;;;;;;;11.15;6.93;;;;;;;4.92;100.00;98163.63;4950789;28;20137;-60
2021/12/25 00:58:05;;;;;;;11.55;7.65;;;;;;;4.93;100.00;98144.00;4952725;28;20034;-60
2021/12/25 01:00:31;;;;;;;13.15;7.68;;;;;;;4.94;100.00;98142.13;4955083;28;20054;-60
2021/12/25 01:02:56;;;;;;;11.23;7.03;;;;;;;4.91;100.00;98150.56;4953876;28;20026;-60
2021/12/25 01:05:21;;;;;;;13.85;6.88;;;;;;;4.93;100.00;98148.50;4946223;28;20053;-61
2021/12/25 01:07:47;;;;;;;11.40;7.53;;;;;;;4.85;100.00;98148.88;4964263;28;20062;-60
2021/12/25 01:10:15;;;;;;;11.80;6.57;;;;;;;4.84;100.00;98142.75;4949954;28;20042;-60
2021/12/25 01:12:59;;;;;;;14.77;7.32;;;;;;;4.87;100.00;98142.28;4956772;28;20019;-60
2021/12/25 01:15:35;;;;;;;10.88;7.25;;;;;;;4.84;100.00;98140.09;4955749;28;20065;-60
2021/12/25 01:36:46;;;;;;;8.48;5.68;;;;;;;4.90;100.00;98128.53;4910701;28;20050;-60
2021/12/25 01:49:56;;;;;;;10.00;6.45;;;;;;;4.81;100.00;98137.88;4956032;28;20088;-60
2021/12/25 01:52:26;;;;;;;12.30;6.40;;;;;;;4.78;100.00;98130.38;4953835;28;20452;-60
2021/12/25 01:54:53;;;;;;;11.85;6.90;;;;;;;4.76;100.00;98124.50;4957701;28;20390;-60
2021/12/25 01:57:18;;;;;;;13.88;7.57;;;;;;;4.76;100.00;98125.28;4950255;28;20035;-60
2021/12/25 01:59:44;;;;;;;13.68;7.20;;;;;;;4.68;100.00;98119.53;4955550;28;20085;-61
2021/12/25 02:02:09;;;;;;;9.45;6.20;;;;;;;4.74;100.00;98113.28;4950582;28;20042;-59
2021/12/25 02:04:34;;;;;;;11.18;6.90;;;;;;;4.72;100.00;98124.16;4950117;28;20118;-61
2021/12/25 02:07:00;;;;;;;10.45;6.30;;;;;;;4.74;100.00;98113.28;4949888;28;20153;-59
2021/12/25 02:09:27;;;;;;;10.55;6.85;;;;;;;4.67;100.00;98117.94;4955635;28;20022;-59
2021/12/25 02:11:53;;;;;;;9.32;5.57;;;;;;;4.71;100.00;98116.41;4950745;28;20050;-59
2021/12/25 02:14:18;;;;;;;10.07;5.35;;;;;;;4.77;100.00;98110.19;4952644;28;20035;-61
2021/12/25 02:19:45;;;;;;;11.27;7.13;;;;;;;4.72;100.00;98102.13;4931402;29;20043;-61
2021/12/25 02:22:11;;;;;;;12.35;6.82;;;;;;;4.68;100.00;98108.94;4935810;29;20039;-59
2021/12/25 02:24:37;;;;;;;12.07;7.55;;;;;;;4.63;100.00;98106.16;4937225;29;20074;-58
2021/12/25 02:27:03;;;;;;;13.30;7.80;;;;;;;4.66;100.00;98097.72;4931696;28;20078;-58
2021/12/25 02:29:29;;;;;;;10.93;7.57;;;;;;;4.64;100.00;98103.28;4930697;29;20039;-59
2021/12/25 02:31:54;;;;;;;13.88;7.90;;;;;;;4.61;100.00;98098.41;4924221;29;20047;-58
2021/12/25 02:34:20;;;;;;;13.82;8.13;;;;;;;4.68;100.00;98098.31;4930904;29;20130;-58
2021/12/25 02:36:45;;;;;;;15.68;8.77;;;;;;;4.72;100.00;98094.16;4935275;28;20086;-59
2021/12/25 02:39:11;;;;;;;17.67;8.50;;;;;;;4.67;100.00;98102.00;4932531;29;20046;-58
2021/12/25 02:41:36;;;;;;;17.27;8.10;;;;;;;4.74;100.00;98094.72;4907227;29;20047;-58
2021/12/25 02:44:02;;;;;;;13.50;7.25;;;;;;;4.66;100.00;98100.38;4936429;29;20042;-59
2021/12/25 02:46:27;;;;;;;11.88;7.43;;;;;;;4.61;100.00;98100.28;4922938;28;20183;-59
2021/12/25 02:48:55;;;;;;;11.57;7.63;;;;;;;4.60;100.00;98098.66;4936593;29;20039;-58
2021/12/25 02:51:21;;;;;;;12.27;7.15;;;;;;;4.59;100.00;98091.72;4935188;28;20063;-59
2021/12/25 02:53:46;;;;;;;9.80;6.68;;;;;;;4.53;100.00;98088.97;4939066;29;20039;-59
2021/12/25 02:56:12;;;;;;;13.48;7.75;;;;;;;4.48;100.00;98090.69;4930212;29;20043;-59
2021/12/25 02:58:39;;;;;;;10.93;7.20;;;;;;;4.44;100.00;98089.53;4939685;29;20074;-58
2021/12/25 03:01:14;;;;;;;14.88;7.57;;;;;;;4.42;100.00;98086.28;4940956;28;20592;-59
2021/12/25 03:03:40;;;;;;;12.90;7.95;;;;;;;4.47;100.00;98091.75;4941356;29;20671;-58
2021/12/25 03:06:06;;;;;;;14.18;8.15;;;;;;;4.48;100.00;98088.84;4940725;29;20047;-59
2021/12/25 03:08:32;;;;;;;13.60;8.05;;;;;;;4.50;100.00;98085.97;4936456;29;20488;-59
2021/12/25 03:10:58;;;;;;;12.85;7.28;;;;;;;4.49;100.00;98087.81;4941513;29;20039;-59
2021/12/25 03:13:44;;;;;;;10.75;7.13;;;;;;;4.50;100.00;98093.94;4943266;29;20557;-59
2021/12/25 03:16:10;;;;;;;13.32;7.90;;;;;;;4.48;100.00;98096.00;4938395;29;20494;-58
2021/12/25 03:18:43;;;;;;;13.63;8.05;;;;;;;4.48;100.00;98099.47;4950692;28;20058;-58
2021/12/25 03:21:08;;;;;;;14.32;8.05;;;;;;;4.43;100.00;98094.03;4959660;28;20070;-59
2021/12/25 03:23:35;;;;;;;14.73;7.30;;;;;;;4.40;100.00;98097.16;4959648;28;20039;-59
2021/12/25 03:26:01;;;;;;;14.13;7.55;;;;;;;4.39;100.00;98107.97;4955943;28;20047;-59
2021/12/25 03:28:32;;;;;;;10.80;7.22;;;;;;;4.36;100.00;98098.63;4958828;28;20046;-59
2021/12/25 03:31:00;;;;;;;14.43;7.00;;;;;;;4.24;100.00;98105.78;4956497;28;20901;-59
2021/12/25 03:33:26;;;;;;;12.88;7.15;;;;;;;4.17;100.00;98103.25;4953914;28;20541;-59
2021/12/25 03:35:51;;;;;;;13.82;7.53;;;;;;;4.18;100.00;98106.69;4956360;28;20777;-59
2021/12/25 03:38:19;;;;;;;11.20;7.47;;;;;;;4.14;100.00;98106.34;4955029;28;20065;-59
2021/12/25 03:40:45;;;;;;;11.82;7.07;;;;;;;4.13;100.00;98109.22;4955006;28;20278;-61
2021/12/25 03:43:10;;;;;;;11.95;7.53;;;;;;;4.17;100.00;98107.72;4956567;28;20027;-59
2021/12/25 03:45:38;;;;;;;12.13;7.25;;;;;;;4.22;100.00;98107.84;4955969;28;20122;-59
2021/12/25 03:48:10;;;;;;;16.40;8.30;;;;;;;4.20;100.00;98108.09;4958338;28;20031;-59
2021/12/25 03:58:49;;;;;;;15.48;8.10;;;;;;;4.16;100.00;98109.56;4954309;28;20810;-59
2021/12/25 04:01:43;;;;;;;14.05;8.32;;;;;;;4.17;100.00;98105.91;4955959;28;20050;-59
2021/12/25 04:06:46;;;;;;;13.43;8.60;;;;;;;4.14;100.00;98100.22;4951178;28;20733;-59
2021/12/25 04:09:22;;;;;;;16.27;9.55;;;;;;;4.32;100.00;98097.50;4955675;28;20027;-59
2021/12/25 04:11:47;;;;;;;17.08;9.98;;;;;;;4.35;100.00;98097.03;4950150;28;20379;-59
2021/12/25 04:14:13;;;;;;;19.23;10.63;;;;;;;4.22;100.00;98091.94;4951121;28;20035;-59
2021/12/25 04:16:38;;;;;;;17.90;9.85;;;;;;;4.20;100.00;98094.03;4948985;28;20650;-59
2021/12/25 04:19:04;;;;;;;17.77;10.60;;;;;;;4.24;100.00;98087.22;4954421;28;20055;-59
2021/12/25 04:21:29;;;;;;;20.05;11.55;;;;;;;4.24;100.00;98095.16;4970257;28;20051;-59
2021/12/25 04:23:55;;;;;;;18.58;10.18;;;;;;;4.29;100.00;98092.63;4955790;28;20035;-59
2021/12/25 04:26:23;;;;;;;21.93;11.27;;;;;;;4.28;100.00;98093.69;4951512;28;20085;-59
2021/12/25 04:29:30;;;;;;;20.80;12.10;;;;;;;4.24;100.00;98089.88;4956175;28;20027;-59
2021/12/25 04:32:08;;;;;;;18.95;10.77;;;;;;;4.24;100.00;98095.16;4957013;28;20039;-59
2021/12/25 04:42:52;;;;;;;14.52;8.80;;;;;;;4.16;100.00;98090.22;4955894;28;20053;-59
2021/12/25 05:01:47;;;;;;;12.40;8.77;;;;;;;4.10;100.00;98078.69;4949309;28;20050;-59
2021/12/25 05:04:18;;;;;;;17.35;9.35;;;;;;;4.04;100.00;98076.91;4952123;28;20057;-59
2021/12/25 05:06:43;;;;;;;13.93;9.32;;;;;;;4.04;100.00;98077.75;4954231;28;20051;-60
2021/12/25 05:09:09;;;;;;;21.83;11.77;;;;;;;4.04;100.00;98074.28;4950508;28;20035;-59
2021/12/25 05:11:34;;;;;;;20.05;12.35;;;;;;;4.04;100.00;98068.97;4953866;28;20053;-59
2021/12/25 05:14:00;;;;;;;23.42;12.95;;;;;;;4.01;100.00;98072.88;4954743;28;20038;-59
2021/12/25 05:16:26;;;;;;;22.80;12.75;;;;;;;4.08;100.00;98060.34;4953937;28;20034;-59
2021/12/25 05:18:52;;;;;;;27.33;13.60;;;;;;;4.13;100.00;98059.66;4956375;28;20039;-59
2021/12/25 05:21:18;;;;;;;24.95;14.00;;;;;;;4.14;100.00;98055.16;4953956;28;20043;-59
2021/12/25 05:23:44;;;;;;;24.83;12.85;;;;;;;4.11;100.00;98059.88;4954331;28;20038;-59
2021/12/25 05:26:10;;;;;;;20.92;12.98;;;;;;;4.16;100.00;98058.38;4956838;28;20062;-60
2021/12/25 05:28:40;;;;;;;22.33;12.02;;;;;;;4.19;100.00;98055.25;4952176;28;20042;-59
2021/12/25 05:31:06;;;;;;;;;;;;;;;4.05;100.00;98054.69;4949918;28;20133;-59
2021/12/25 05:33:31;;;;;;;21.58;13.68;;;;;;;4.08;100.00;98047.06;4951856;28;19941;-60
2021/12/25 05:35:57;;;;;;;21.33;12.57;;;;;;;4.11;100.00;98049.25;4953477;28;20047;-59
2021/12/25 05:38:22;;;;;;;22.92;13.50;;;;;;;4.20;100.00;98048.94;4951606;28;20063;-60
2021/12/25 05:40:48;;;;;;;25.10;14.25;;;;;;;4.12;100.00;98047.44;4951531;28;20054;-59
2021/12/25 05:43:14;;;;;;;24.38;13.85;;;;;;;4.01;100.00;98045.56;4953225;28;20832;-59
2021/12/25 05:45:39;;;;;;;23.42;12.50;;;;;;;4.03;100.00;98046.16;4956298;28;20035;-59
2021/12/25 05:48:05;;;;;;;21.63;13.13;;;;;;;4.02;100.00;98040.03;4951409;28;20390;-59
2021/12/25 05:50:30;;;;;;;22.65;14.43;;;;;;;3.99;100.00;98051.09;4950845;28;20125;-59
2021/12/25 05:52:56;;;;;;;20.50;12.45;;;;;;;3.98;100.00;98044.19;4950234;28;20062;-59
2021/12/25 05:55:22;;;;;;;20.65;12.77;;;;;;;4.04;100.00;98053.88;4951722;28;20050;-59
2021/12/25 05:57:48;;;;;;;25.55;12.77;;;;;;;3.98;100.00;98060.09;4949549;28;20035;-59
2021/12/25 06:00:14;;;;;;;23.77;14.10;;;;;;;3.93;100.00;98057.31;4950344;28;20031;-59
2021/12/25 06:02:39;;;;;;;18.55;12.15;;;;;;;4.00;100.00;98065.97;4951840;28;20065;-60
2021/12/25 06:05:06;;;;;;;35.35;13.38;;;;;;;3.94;100.00;98074.03;4952668;28;20894;-60
2021/12/25 06:07:31;;;;;;;86.88;14.30;;;;;;;3.90;100.00;98068.38;4950977;28;20110;-60
2021/12/25 06:09:57;;;;;;;30.77;13.85;;;;;;;3.89;100.00;98074.69;4948299;28;20569;-59
2021/12/25 06:12:23;;;;;;;115.50;14.00;;;;;;;3.83;100.00;98075.63;4945340;28;20528;-59
2021/12/25 06:14:49;;;;;;;50.95;12.80;;;;;;;3.91;100.00;98080.59;4956029;28;20031;-59
2021/12/25 06:17:15;;;;;;;50.35;13.25;;;;;;;3.90;100.00;98081.63;4956194;28;20047;-60
2021/12/25 06:19:40;;;;;;;45.60;13.02;;;;;;;3.94;100.00;98088.09;4946161;28;20141;-60
2021/12/25 06:22:05;;;;;;;44.55;11.95;;;;;;;3.90;100.00;98084.28;4946575;28;20127;-60
2021/12/25 06:24:32;;;;;;;208.95;14.40;;;;;;;3.93;100.00;98094.44;4952724;28;20125;-59
2021/12/25 06:26:57;;;;;;;117.13;13.35;;;;;;;3.84;100.00;98086.00;4949414;28;20476;-61
2021/12/25 06:29:23;;;;;;;161.10;14.20;;;;;;;3.83;100.00;98092.31;4956444;28;20063;-60
2021/12/25 06:31:50;;;;;;;58.60;11.90;;;;;;;3.82;100.00;98108.44;4949105;28;20572;-59
2021/12/25 06:34:15;;;;;;;88.03;13.60;;;;;;;3.82;100.00;98113.75;4953421;28;20038;-59
2021/12/25 06:36:41;;;;;;;139.82;12.93;;;;;;;3.81;100.00;98112.94;4958988;28;20518;-59
2021/12/25 06:39:11;;;;;;;108.97;13.35;;;;;;;3.82;100.00;98124.34;4957519;28;20673;-59
2021/12/25 06:41:36;;;;;;;127.95;13.52;;;;;;;3.85;100.00;98129.22;4956730;28;20586;-59
2021/12/25 06:44:01;;;;;;;104.55;14.20;;;;;;;3.77;100.00;98134.81;4957579;28;20026;-59
2021/12/25 06:46:27;;;;;;;38.28;13.35;;;;;;;3.83;100.00;98133.94;4951848;28;20046;-59
2021/12/25 06:48:52;;;;;;;125.82;15.10;;;;;;;3.79;100.00;98132.75;4957797;28;20030;-59
2021/12/25 06:51:18;;;;;;;20.95;11.43;;;;;;;3.99;100.00;98135.94;4961493;28;20580;-59
2021/12/25 06:53:43;;;;;;;22.23;12.88;;;;;;;3.94;100.00;98132.34;4953019;28;20042;-59
2021/12/25 06:56:08;;;;;;;18.83;10.07;;;;;;;3.95;100.00;98134.78;4954209;28;20105;-59
2021/12/25 06:58:34;;;;;;;16.08;9.90;;;;;;;3.85;100.00;98134.53;4952820;28;20031;-59
2021/12/25 07:01:00;;;;;;;13.25;8.73;;;;;;;3.84;100.00;98138.19;4956937;28;20053;-60
2021/12/25 07:03:25;;;;;;;14.25;9.25;;;;;;;3.82;100.00;98142.91;4951590;28;20226;-59
2021/12/25 07:05:50;;;;;;;11.63;7.63;;;;;;;3.82;100.00;98149.03;4952440;28;20102;-59
2021/12/25 07:08:16;;;;;;;13.40;6.78;;;;;;;3.78;100.00;98149.72;4954130;28;20801;-59
2021/12/25 07:10:41;;;;;;;9.55;6.35;;;;;;;3.73;100.00;98149.56;4953760;28;20046;-59
2021/12/25 07:13:08;;;;;;;9.82;6.03;;;;;;;3.68;100.00;98156.34;4949747;28;20046;-59
2021/12/25 07:15:33;;;;;;;13.40;6.40;;;;;;;3.66;100.00;98153.09;4951140;28;20047;-59
2021/12/25 07:17:59;;;;;;;10.82;6.20;;;;;;;3.56;100.00;98171.38;4949703;28;20053;-59
2021/12/25 07:20:24;;;;;;;11.63;6.60;;;;;;;3.53;100.00;98169.19;4956134;28;20126;-59
2021/12/25 07:22:49;;;;;;;10.30;5.78;;;;;;;3.48;100.00;98177.00;4957707;28;20121;-59
2021/12/25 07:25:15;;;;;;;11.40;6.20;;;;;;;3.46;100.00;98168.44;4954569;28;20031;-59
2021/12/25 07:27:40;;;;;;;9.25;5.43;;;;;;;3.43;100.00;98160.94;4954090;28;20035;-59
2021/12/25 07:30:06;;;;;;;9.02;5.63;;;;;;;3.34;100.00;98162.28;4957388;28;20023;-60
2021/12/25 07:32:32;;;;;;;8.70;5.22;;;;;;;3.32;100.00;98177.56;4955754;28;20034;-59
2021/12/25 07:34:57;;;;;;;9.85;6.63;;;;;;;3.37;100.00;98175.06;4950485;28;20025;-59
2021/12/25 07:37:23;;;;;;;10.18;6.68;;;;;;;3.33;100.00;98174.72;4951577;28;20043;-59
2021/12/25 07:39:48;;;;;;;8.75;5.95;;;;;;;3.30;100.00;98177.00;4954103;28;20034;-60
2021/12/25 07:42:14;;;;;;;8.65;5.65;;;;;;;3.27;100.00;98177.44;4954246;28;20870;-59
2021/12/25 07:44:39;;;;;;;9.75;5.55;;;;;;;3.22;100.00;98178.91;4956459;28;20981;-59
2021/12/25 07:47:09;;;;;;;10.05;5.30;;;;;;;3.13;100.00;98180.22;4953905;28;20052;-61
2021/12/25 07:49:36;;;;;;;8.10;4.47;;;;;;;3.09;100.00;98179.03;4959503;28;20862;-59
2021/12/25 07:52:01;;;;;;;5.28;3.05;;;;;;;3.00;100.00;98190.97;4954949;28;20105;-60
2021/12/25 07:54:27;;;;;;;5.63;3.72;;;;;;;2.93;100.00;98180.44;4948174;28;20469;-59
2021/12/25 07:56:52;;;;;;;10.85;5.10;;;;;;;2.93;100.00;98188.38;4951007;28;20256;-59
2021/12/25 07:59:19;;;;;;;11.27;5.10;;;;;;;2.89;100.00;98196.97;4950901;28;20610;-59
2021/12/25 08:01:45;;;;;;;7.35;4.47;;;;;;;2.82;100.00;98204.94;4953667;28;20043;-59
2021/12/25 08:04:10;;;;;;;9.13;5.20;;;;;;;2.84;100.00;98202.91;4949294;28;20056;-59
2021/12/25 08:06:36;;;;;;;14.63;7.68;;;;;;;2.88;100.00;98198.00;4952461;28;20038;-59
2021/12/25 08:09:03;;;;;;;15.93;7.10;;;;;;;2.91;100.00;98210.78;4952389;28;20038;-59
2021/12/25 08:11:30;;;;;;;13.45;5.03;;;;;;;2.86;100.00;98202.69;4954860;28;20047;-60
2021/12/25 08:13:56;;;;;;;11.73;6.53;;;;;;;2.96;100.00;98217.03;4955532;28;20306;-59
2021/12/25 08:16:21;;;;;;;11.10;5.80;;;;;;;3.23;100.00;98212.31;4957387;28;20580;-59
2021/12/25 08:18:47;;;;;;;9.57;5.40;;;;;;;3.15;100.00;98225.84;4958009;28;20742;-59
2021/12/25 08:21:13;;;;;;;5.95;4.00;;;;;;;3.13;100.00;98230.53;4956287;28;20121;-59
2021/12/25 08:23:38;;;;;;;7.30;4.18;;;;;;;2.98;100.00;98230.06;4955135;28;20417;-60
2021/12/25 08:26:04;;;;;;;7.05;3.97;;;;;;;2.86;100.00;98234.44;4951329;28;20031;-59
2021/12/25 08:28:30;;;;;;;8.23;4.03;;;;;;;2.84;100.00;98229.34;4952070;28;20145;-60
2021/12/25 08:30:57;;;;;;;6.28;4.13;;;;;;;2.65;100.00;98231.16;4949909;28;20924;-59
2021/12/25 08:33:22;;;;;;;4.97;2.90;;;;;;;2.54;100.00;98229.19;4953174;28;20549;-59
2021/12/25 08:35:48;;;;;;;4.85;2.47;;;;;;;2.50;100.00;98230.66;4952521;28;20053;-59
2021/12/25 08:38:14;;;;;;;4.82;3.13;;;;;;;2.47;100.00;98233.72;4955491;28;20027;-60
2021/12/25 08:40:40;;;;;;;5.32;3.28;;;;;;;2.40;100.00;98235.59;4952224;28;20568;-59
2021/12/25 08:43:05;;;;;;;4.82;2.92;;;;;;;2.41;100.00;98245.16;4960876;28;20673;-59
2021/12/25 08:45:49;;;;;;;5.47;3.10;;;;;;;2.36;100.00;98243.97;4955606;28;20058;-60
2021/12/25 08:48:17;;;;;;;2.88;1.92;;;;;;;2.31;100.00;98256.22;4954267;28;20047;-59
2021/12/25 08:50:51;;;;;;;2.92;2.05;;;;;;;2.11;100.00;98256.31;4948678;28;20358;-59
2021/12/25 08:53:18;;;;;;;3.78;2.22;;;;;;;2.17;100.00;98255.47;4945349;28;20035;-61
2021/12/25 08:55:43;;;;;;;3.22;2.10;;;;;;;2.13;100.00;98262.22;4950733;28;20548;-60
2021/12/25 08:58:09;;;;;;;6.53;2.58;;;;;;;2.09;100.00;98255.72;4961831;28;20026;-61
2021/12/25 09:00:34;;;;;;;4.28;2.45;;;;;;;2.05;100.00;98265.13;4954480;28;20785;-59
2021/12/25 09:03:00;;;;;;;8.65;3.03;;;;;;;2.08;100.00;98260.19;4955067;28;20898;-61
2021/12/25 09:05:25;;;;;;;10.45;5.40;;;;;;;2.13;100.00;98262.22;4948209;28;20070;-59
2021/12/25 09:07:51;;;;;;;7.40;4.15;;;;;;;2.20;100.00;98268.28;4955164;28;20433;-59
2021/12/25 09:10:17;;;;;;;4.70;2.45;;;;;;;2.04;100.00;98276.69;4945233;28;20034;-59
2021/12/25 09:12:44;;;;;;;5.88;3.30;;;;;;;2.05;100.00;98273.03;4949984;28;20085;-59
2021/12/25 09:15:11;;;;;;;7.25;4.03;;;;;;;2.06;100.00;98275.47;4949743;28;20046;-62
2021/12/25 09:17:36;;;;;;;6.03;3.40;;;;;;;2.10;100.00;98281.16;4952090;28;20038;-60
2021/12/25 09:20:02;;;;;;;8.45;4.40;;;;;;;2.07;100.00;98284.19;4952738;28;20039;-60
2021/12/25 09:22:27;;;;;;;6.93;4.20;;;;;;;2.03;100.00;98285.66;4945057;28;20030;-61
2021/12/25 09:24:53;;;;;;;6.85;3.28;;;;;;;1.99;100.00;98285.25;4944086;28;20563;-61
2021/12/25 09:27:18;;;;;;;4.55;2.80;;;;;;;1.88;100.00;98292.00;4950960;28;20071;-61
2021/12/25 09:29:44;;;;;;;3.45;2.47;;;;;;;1.79;100.00;98293.25;4951770;28;20041;-59
2021/12/25 09:32:09;;;;;;;7.38;3.97;;;;;;;1.84;100.00;98293.44;4952082;28;20050;-59
2021/12/25 09:34:34;;;;;;;5.57;3.67;;;;;;;1.87;100.00;98289.56;4951338;28;20059;-61
2021/12/25 09:37:00;;;;;;;5.30;3.05;;;;;;;1.81;100.00;98300.97;4950368;28;20560;-59
2021/12/25 09:39:25;;;;;;;5.13;3.35;;;;;;;1.74;100.00;98301.00;4944639;28;20058;-59
2021/12/25 09:41:51;;;;;;;10.13;5.30;;;;;;;1.79;100.00;98303.81;4947007;28;20106;-60
2021/12/25 09:44:16;;;;;;;4.90;2.90;;;;;;;1.78;100.00;98314.63;4949584;28;20585;-59
2021/12/25 09:46:42;;;;;;;5.10;3.53;;;;;;;1.95;100.00;98315.78;4950279;28;20106;-59
2021/12/25 09:49:07;;;;;;;6.65;3.60;;;;;;;1.97;100.00;98319.00;4945245;28;20481;-59
2021/12/25 09:51:33;;;;;;;9.13;3.45;;;;;;;1.85;100.00;98310.94;4946766;28;20114;-59
2021/12/25 09:54:06;;;;;;;4.60;2.90;;;;;;;1.72;100.00;98321.50;4953424;28;20490;-59
2021/12/25 09:56:32;;;;;;;5.65;3.30;;;;;;;1.81;100.00;98315.00;4947291;28;20137;-59
2021/12/25 09:58:58;;;;;;;4.35;2.97;;;;;;;1.72;100.00;98311.78;4949582;28;20049;-59
2021/12/25 10:01:33;;;;;;;7.22;3.92;;;;;;;1.69;100.00;98316.66;4957337;28;20043;-59
2021/12/25 10:04:00;;;;;;;6.28;3.58;;;;;;;1.65;100.00;98331.31;4950877;28;20035;-59
2021/12/25 10:06:30;;;;;;;4.53;3.00;;;;;;;1.75;100.00;98323.75;4954483;28;20124;-61
2021/12/25 10:08:56;;;;;;;4.35;2.88;;;;;;;1.70;100.00;98326.22;4950605;28;20126;-60
2021/12/25 10:11:22;;;;;;;6.18;4.00;;;;;;;1.64;100.00;98334.94;4942278;28;20039;-60
2021/12/25 10:13:47;;;;;;;5.95;3.90;;;;;;;1.60;100.00;98331.09;4954736;28;20029;-61
2021/12/25 10:16:31;;;;;;;10.55;5.05;;;;;;;1.64;100.00;98334.94;4944814;28;20439;-60
2021/12/25 10:19:15;;;;;;;7.90;4.97;;;;;;;1.62;100.00;98329.91;4947635;28;20066;-61
2021/12/25 10:21:40;;;;;;;8.70;5.63;;;;;;;1.64;100.00;98333.13;4949873;28;20162;-61
2021/12/25 10:24:17;;;;;;;6.30;3.40;;;;;;;1.48;100.00;98331.72;4949444;28;20485;-61
2021/12/25 10:26:46;;;;;;;6.97;3.95;;;;;;;1.63;100.00;98330.69;4949236;28;20043;-60
2021/12/25 10:29:23;;;;;;;6.45;3.30;;;;;;;1.55;100.00;98329.09;4952764;28;20031;-61
2021/12/25 10:31:50;;;;;;;3.20;2.47;;;;;;;1.46;100.00;98332.97;4949546;28;20047;-60
2021/12/25 10:34:17;;;;;;;5.93;2.95;;;;;;;1.40;100.00;98339.88;4953429;28;20035;-60
2021/12/25 10:36:42;;;;;;;7.97;4.38;;;;;;;1.42;100.00;98343.13;4948873;28;20034;-59
2021/12/25 10:39:12;;;;;;;8.30;4.82;;;;;;;1.40;100.00;98334.59;4949509;28;20611;-59
2021/12/25 10:42:13;;;;;;;8.98;5.22;;;;;;;1.42;100.00;98343.13;4943166;28;20057;-59
2021/12/25 10:44:39;;;;;;;;;;;;;;;1.64;100.00;98338.41;4953422;28;20034;-60
2021/12/25 10:47:24;;;;;;;7.20;4.30;;;;;;;1.44;100.00;98342.91;4946407;28;19926;-59
2021/12/25 10:49:58;;;;;;;4.65;3.10;;;;;;;1.33;100.00;98344.34;4946370;28;20089;-60
2021/12/25 10:52:40;;;;;;;4.70;2.83;;;;;;;1.22;100.00;98331.75;4946832;28;21068;-60
2021/12/25 10:55:19;;;;;;;5.97;3.55;;;;;;;1.17;100.00;98339.47;4943960;28;20046;-60
2021/12/25 10:57:50;;;;;;;7.82;3.80;;;;;;;1.16;100.00;98348.41;4958454;28;20053;-59
2021/12/25 11:00:21;;;;;;;4.90;3.30;;;;;;;1.20;100.00;98344.34;4956600;28;20077;-60
2021/12/25 11:03:09;;;;;;;9.48;4.45;;;;;;;1.19;100.00;98337.44;4954911;28;20127;-59
2021/12/25 11:05:45;;;;;;;9.95;5.72;;;;;;;1.25;100.00;98342.72;4956032;28;20206;-60
2021/12/25 11:08:16;;;;;;;13.82;5.25;;;;;;;1.16;100.00;98338.66;4951467;28;20463;-60
2021/12/25 11:10:55;;;;;;;4.97;3.03;;;;;;;1.17;100.00;98339.47;4956877;28;20093;-60
2021/12/25 11:13:41;;;;;;;9.63;4.72;;;;;;;1.18;100.00;98330.56;4949385;28;20161;-60
2021/12/25 11:16:08;;;;;;;6.30;4.05;;;;;;;1.20;100.00;98328.50;4949637;28;20039;-60
2021/12/25 11:18:52;;;;;;;6.35;3.85;;;;;;;1.15;100.00;98334.41;4950754;28;20083;-60
2021/12/25 11:21:18;;;;;;;8.55;4.80;;;;;;;1.30;100.00;98334.22;4951073;28;20070;-60
2021/12/25 11:23:44;;;;;;;8.23;4.60;;;;;;;1.25;100.00;98336.66;4955217;28;20578;-60
2021/12/25 11:26:09;;;;;;;5.30;3.50;;;;;;;1.10;100.00;98334.22;4955246;28;20075;-60
2021/12/25 11:28:35;;;;;;;8.48;4.80;;;;;;;1.05;100.00;98337.47;4947437;28;20070;-60
2021/12/25 11:31:00;;;;;;;8.25;4.47;;;;;;;1.05;100.00;98340.09;4955246;28;20111;-59
2021/12/25 11:33:25;;;;;;;6.30;4.05;;;;;;;1.05;100.00;98334.81;4954974;28;20469;-60
2021/12/25 11:35:51;;;;;;;5.85;3.95;;;;;;;0.92;100.00;98352.44;4954846;28;20697;-60
2021/12/25 11:38:16;;;;;;;9.25;5.03;;;;;;;0.89;100.00;98348.41;4954321;28;20675;-60
2021/12/25 11:40:49;;;;;;;6.82;4.80;;;;;;;0.76;100.00;98356.31;4955569;28;20049;-60
2021/12/25 11:43:14;;;;;;;6.50;4.47;;;;;;;0.82;100.00;98355.47;4956077;28;20624;-60
2021/12/25 11:45:41;;;;;;;5.55;3.90;;;;;;;0.74;100.00;98360.97;4948741;28;20479;-60
2021/12/25 11:48:20;;;;;;;7.40;4.25;;;;;;;0.63;100.00;98357.91;4953012;28;20534;-60
2021/12/25 11:50:48;;;;;;;6.72;4.00;;;;;;;0.70;100.00;98351.81;4953817;28;20120;-60
2021/12/25 11:53:26;;;;;;;6.18;3.88;;;;;;;0.60;100.00;98350.41;4950214;28;20038;-60
2021/12/25 11:58:39;;;;;;;11.02;4.57;;;;;;;0.44;100.00;98353.38;4956691;28;20347;-61
2021/12/25 12:01:23;;;;;;;7.13;4.25;;;;;;;0.53;100.00;98352.19;4959785;28;20552;-60
2021/12/25 12:03:54;;;;;;;7.35;3.92;;;;;;;0.55;100.00;98351.97;4949852;28;20085;-59
2021/12/25 12:06:51;;;;;;;8.98;5.80;;;;;;;0.51;100.00;98350.78;4948014;28;20043;-59
2021/12/25 12:09:24;;;;;;;9.18;5.90;;;;;;;0.59;100.00;98358.50;4937181;28;20038;-60
2021/12/25 12:12:10;;;;;;;10.00;4.90;;;;;;;0.63;100.00;98350.00;4952560;28;20130;-60
2021/12/25 12:14:35;;;;;;;6.50;4.38;;;;;;;0.53;100.00;98344.28;4951852;28;20320;-60
2021/12/25 12:17:22;;;;;;;7.78;5.65;;;;;;;0.58;100.00;98352.41;4954634;28;20769;-60
2021/12/25 12:19:48;;;;;;;8.25;4.63;;;;;;;0.57;100.00;98353.41;4936084;28;20090;-60
2021/12/25 12:27:35;;;;;;;7.68;4.82;;;;;;;0.45;100.00;98357.66;4952445;28;20153;-60
2021/12/25 12:30:01;;;;;;;5.97;4.53;;;;;;;0.39;100.00;98361.06;4957911;28;20038;-61
2021/12/25 12:32:35;;;;;;;6.72;4.43;;;;;;;0.44;100.00;98361.28;4945592;28;20058;-60
2021/12/25 12:35:01;;;;;;;4.95;3.50;;;;;;;0.39;100.00;98361.06;4951296;28;20027;-60
2021/12/25 12:37:28;;;;;;;5.35;3.22;;;;;;;0.36;100.00;98364.91;4953130;28;20031;-59
2021/12/25 12:39:53;;;;;;;6.35;3.33;;;;;;;0.32;100.00;98368.13;4957672;28;20031;-60
2021/12/25 12:42:19;;;;;;;5.55;3.63;;;;;;;0.33;100.00;98369.78;4952657;28;20050;-59
2021/12/25 12:44:48;;;;;;;5.72;3.33;;;;;;;0.18;100.00;98362.81;4948790;28;20027;-59
2021/12/25 12:47:17;;;;;;;6.50;4.15;;;;;;;0.20;100.00;98366.09;4950196;28;20553;-59
2021/12/25 12:49:45;;;;;;;10.18;4.22;;;;;;;0.18;100.00;98362.81;4954778;28;20393;-60
2021/12/25 12:52:18;;;;;;;9.88;5.30;;;;;;;0.19;100.00;98369.72;4952773;28;20050;-60
2021/12/25 12:54:55;;;;;;;9.23;5.32;;;;;;;0.07;100.00;98381.81;4943874;28;20102;-60